sensor_id;sensor_type;location;lat;lon;timestamp;pressure;altitude;pressure_sealevel;temperature;humidity
74637;BME280;63141;54.616;39.754;2022-10-31T00:02:08;98494.13;;;23.97;37.42
74637;BME280;63141;54.616;39.754;2022-10-31T00:05:09;98486.13;;;23.97;37.45
74637;BME280;63141;54.616;39.754;2022-10-31T00:08:15;98482.50;;;23.98;37.40
74637;BME280;63141;54.616;39.754;2022-10-31T00:11:16;98475.50;;;23.97;37.69
74637;BME280;63141;54.616;39.754;2022-10-31T00:14:17;98467.53;;;23.97;37.63
74637;BME280;63141;54.616;39.754;2022-10-31T00:17:19;98457.84;;;23.96;37.47
74637;BME280;63141;54.616;39.754;2022-10-31T00:20:20;98454.22;;;23.97;37.32
74637;BME280;63141;54.616;39.754;2022-10-31T00:23:21;98454.22;;;23.97;37.58
74637;BME280;63141;54.616;39.754;2022-10-31T00:26:23;98452.41;;;23.97;37.37
74637;BME280;63141;54.616;39.754;2022-10-31T00:29:24;98460.38;;;23.97;37.34
74637;BME280;63141;54.616;39.754;2022-10-31T00:32:28;98450.59;;;23.98;37.43
74637;BME280;63141;54.616;39.754;2022-10-31T00:35:31;98447.09;;;23.97;37.50
74637;BME280;63141;54.616;39.754;2022-10-31T00:38:33;98442.63;;;23.98;37.37
74637;BME280;63141;54.616;39.754;2022-10-31T00:41:34;98445.28;;;23.98;37.44
74637;BME280;63141;54.616;39.754;2022-10-31T00:44:36;98434.78;;;23.96;37.33
74637;BME280;63141;54.616;39.754;2022-10-31T00:47:37;98435.50;;;23.98;37.59
74637;BME280;63141;54.616;39.754;2022-10-31T00:50:39;98434.66;;;23.98;36.97
74637;BME280;63141;54.616;39.754;2022-10-31T00:53:41;98435.50;;;23.98;37.26
74637;BME280;63141;54.616;39.754;2022-10-31T00:56:42;98435.50;;;23.98;37.08
74637;BME280;63141;54.616;39.754;2022-10-31T00:59:43;98434.66;;;23.98;37.31
74637;BME280;63141;54.616;39.754;2022-10-31T01:02:46;98427.66;;;23.97;37.25
74637;BME280;63141;54.616;39.754;2022-10-31T01:06:07;98429.31;;;23.98;37.38
74637;BME280;63141;54.616;39.754;2022-10-31T01:09:09;98431.97;;;23.98;37.24
74637;BME280;63141;54.616;39.754;2022-10-31T01:12:11;98431.03;;;23.99;37.06
74637;BME280;63141;54.616;39.754;2022-10-31T01:15:19;98425.81;;;23.97;37.25
74637;BME280;63141;54.616;39.754;2022-10-31T01:18:22;98428.47;;;23.97;37.25
74637;BME280;63141;54.616;39.754;2022-10-31T01:21:27;98430.19;;;23.98;37.26
74637;BME280;63141;54.616;39.754;2022-10-31T01:24:32;98424.88;;;23.98;37.00
74637;BME280;63141;54.616;39.754;2022-10-31T01:27:36;98422.31;;;23.97;37.14
74637;BME280;63141;54.616;39.754;2022-10-31T01:30:40;98413.38;;;23.98;36.96
74637;BME280;63141;54.616;39.754;2022-10-31T01:33:41;98414.25;;;23.98;37.11
74637;BME280;63141;54.616;39.754;2022-10-31T01:36:45;98415.09;;;23.99;37.04
74637;BME280;63141;54.616;39.754;2022-10-31T01:39:52;98415.09;;;23.99;37.10
74637;BME280;63141;54.616;39.754;2022-10-31T01:42:53;98408.94;;;23.98;36.88
74637;BME280;63141;54.616;39.754;2022-10-31T01:45:55;98406.25;;;23.98;37.00
74637;BME280;63141;54.616;39.754;2022-10-31T01:48:57;98400.94;;;23.98;37.21
74637;BME280;63141;54.616;39.754;2022-10-31T01:52:04;98409.75;;;23.99;36.98
74637;BME280;63141;54.616;39.754;2022-10-31T01:55:24;98409.75;;;23.99;37.11
74637;BME280;63141;54.616;39.754;2022-10-31T01:58:30;98406.13;;;24.00;37.12
74637;BME280;63141;54.616;39.754;2022-10-31T02:01:35;98407.09;;;23.99;36.84
74637;BME280;63141;54.616;39.754;2022-10-31T02:04:38;98419.56;;;23.98;36.88
74637;BME280;63141;54.616;39.754;2022-10-31T02:08:04;98414.25;;;23.98;37.12
74637;BME280;63141;54.616;39.754;2022-10-31T02:11:07;98407.09;;;23.99;36.69
74637;BME280;63141;54.616;39.754;2022-10-31T02:14:11;98407.09;;;23.99;36.99
74637;BME280;63141;54.616;39.754;2022-10-31T02:17:13;98412.44;;;23.99;37.11
74637;BME280;63141;54.616;39.754;2022-10-31T02:20:18;98403.47;;;24.00;36.68
74637;BME280;63141;54.616;39.754;2022-10-31T02:26:57;98413.16;;;24.01;37.11
74637;BME280;63141;54.616;39.754;2022-10-31T02:30:06;98413.16;;;24.01;36.89
74637;BME280;63141;54.616;39.754;2022-10-31T02:33:25;98409.53;;;24.02;37.01
74637;BME280;63141;54.616;39.754;2022-10-31T02:42:49;98400.59;;;24.03;37.38
74637;BME280;63141;54.616;39.754;2022-10-31T02:46:02;98404.94;;;24.04;37.47
74637;BME280;63141;54.616;39.754;2022-10-31T02:49:14;98418.25;;;24.04;37.63
74637;BME280;63141;54.616;39.754;2022-10-31T02:52:19;98419.91;;;24.05;37.47
74637;BME280;63141;54.616;39.754;2022-10-31T02:58:31;98411.00;;;24.06;37.43
74637;BME280;63141;54.616;39.754;2022-10-31T03:05:11;98412.69;;;24.07;37.64
74637;BME280;63141;54.616;39.754;2022-10-31T03:11:31;98406.41;;;24.08;38.25
74637;BME280;63141;54.616;39.754;2022-10-31T03:14:38;98401.19;;;24.07;38.09
74637;BME280;63141;54.616;39.754;2022-10-31T03:20:59;98402.03;;;24.07;38.34
74637;BME280;63141;54.616;39.754;2022-10-31T03:24:05;98408.34;;;24.06;38.44
74637;BME280;63141;54.616;39.754;2022-10-31T03:27:10;98407.59;;;24.04;38.34
74637;BME280;63141;54.616;39.754;2022-10-31T03:30:15;98416.41;;;24.04;38.47
74637;BME280;63141;54.616;39.754;2022-10-31T03:33:36;98411.25;;;24.03;38.30
74637;BME280;63141;54.616;39.754;2022-10-31T03:36:40;98411.25;;;24.03;37.93
74637;BME280;63141;54.616;39.754;2022-10-31T03:39:43;98420.16;;;24.02;37.96
74637;BME280;63141;54.616;39.754;2022-10-31T03:42:57;98411.44;;;24.00;38.12
74637;BME280;63141;54.616;39.754;2022-10-31T03:45:59;98417.84;;;23.97;37.25
74637;BME280;63141;54.616;39.754;2022-10-31T03:49:03;98395.09;;;23.93;36.91
74637;BME280;63141;54.616;39.754;2022-10-31T03:55:39;98399.81;;;23.90;35.89
74637;BME280;63141;54.616;39.754;2022-10-31T03:58:49;98406.94;;;23.89;35.53
74637;BME280;63141;54.616;39.754;2022-10-31T04:02:00;98408.75;;;23.89;35.41
74637;BME280;63141;54.616;39.754;2022-10-31T04:05:04;98410.66;;;23.87;35.35
74637;BME280;63141;54.616;39.754;2022-10-31T04:08:12;98408.00;;;23.87;35.48
74637;BME280;63141;54.616;39.754;2022-10-31T04:11:20;98407.06;;;23.88;35.31
74637;BME280;63141;54.616;39.754;2022-10-31T04:14:39;98407.06;;;23.88;35.25
74637;BME280;63141;54.616;39.754;2022-10-31T04:17:45;98416.72;;;23.89;35.35
74637;BME280;63141;54.616;39.754;2022-10-31T04:20:48;98405.34;;;23.87;35.45
74637;BME280;63141;54.616;39.754;2022-10-31T04:23:51;98410.66;;;23.87;35.32
74637;BME280;63141;54.616;39.754;2022-10-31T04:26:59;98414.06;;;23.89;35.65
74637;BME280;63141;54.616;39.754;2022-10-31T04:30:02;98418.44;;;23.90;35.63
74637;BME280;63141;54.616;39.754;2022-10-31T04:33:06;98414.78;;;23.91;35.29
74637;BME280;63141;54.616;39.754;2022-10-31T04:36:08;98419.16;;;23.92;35.38
74637;BME280;63141;54.616;39.754;2022-10-31T04:39:10;98424.50;;;23.92;35.48
74637;BME280;63141;54.616;39.754;2022-10-31T04:42:16;98422.78;;;23.91;35.61
74637;BME280;63141;54.616;39.754;2022-10-31T04:45:18;98426.16;;;23.93;35.32
74637;BME280;63141;54.616;39.754;2022-10-31T04:48:19;98430.66;;;23.92;35.68
74637;BME280;63141;54.616;39.754;2022-10-31T04:51:21;98429.81;;;23.92;35.48
74637;BME280;63141;54.616;39.754;2022-10-31T04:54:22;98423.63;;;23.91;35.49
74637;BME280;63141;54.616;39.754;2022-10-31T04:57:47;98437.66;;;23.93;35.58
74637;BME280;63141;54.616;39.754;2022-10-31T05:00:55;98438.50;;;23.94;35.33
74637;BME280;63141;54.616;39.754;2022-10-31T05:03:57;98446.59;;;23.92;35.40
74637;BME280;63141;54.616;39.754;2022-10-31T05:07:01;98445.75;;;23.92;35.88
74637;BME280;63141;54.616;39.754;2022-10-31T05:10:02;98452.75;;;23.93;35.80
74637;BME280;63141;54.616;39.754;2022-10-31T05:13:05;98463.38;;;23.93;36.11
74637;BME280;63141;54.616;39.754;2022-10-31T05:16:25;98465.09;;;23.94;35.68
74637;BME280;63141;54.616;39.754;2022-10-31T05:19:32;98458.06;;;23.93;35.80
74637;BME280;63141;54.616;39.754;2022-10-31T05:22:55;98461.47;;;23.95;35.75
74637;BME280;63141;54.616;39.754;2022-10-31T05:25:57;98471.25;;;23.94;36.07
74637;BME280;63141;54.616;39.754;2022-10-31T05:28:58;98472.09;;;23.95;35.95
74637;BME280;63141;54.616;39.754;2022-10-31T05:32:00;98472.09;;;23.95;36.14
74637;BME280;63141;54.616;39.754;2022-10-31T05:35:32;98482.75;;;23.95;35.91
74637;BME280;63141;54.616;39.754;2022-10-31T05:38:52;98489.75;;;23.96;35.75
74637;BME280;63141;54.616;39.754;2022-10-31T05:42:04;98484.44;;;23.96;36.10
74637;BME280;63141;54.616;39.754;2022-10-31T05:45:07;98486.13;;;23.97;35.88
74637;BME280;63141;54.616;39.754;2022-10-31T05:48:20;98495.06;;;23.96;36.04
74637;BME280;63141;54.616;39.754;2022-10-31T05:51:56;98495.06;;;23.96;36.03
74637;BME280;63141;54.616;39.754;2022-10-31T05:55:05;98496.78;;;23.97;35.74
74637;BME280;63141;54.616;39.754;2022-10-31T05:58:07;98502.09;;;23.97;36.00
74637;BME280;63141;54.616;39.754;2022-10-31T06:01:12;98503.78;;;23.98;35.93
74637;BME280;63141;54.616;39.754;2022-10-31T06:04:14;98507.41;;;23.97;35.79
74637;BME280;63141;54.616;39.754;2022-10-31T06:07:18;98503.78;;;23.98;35.89
74637;BME280;63141;54.616;39.754;2022-10-31T06:10:19;98511.66;;;23.99;36.06
74637;BME280;63141;54.616;39.754;2022-10-31T06:13:26;98515.28;;;23.98;35.71
74637;BME280;63141;54.616;39.754;2022-10-31T06:16:34;98516.13;;;23.99;35.79
74637;BME280;63141;54.616;39.754;2022-10-31T06:19:51;98520.63;;;23.98;35.84
74637;BME280;63141;54.616;39.754;2022-10-31T06:22:55;98516.13;;;23.99;36.19
74637;BME280;63141;54.616;39.754;2022-10-31T06:25:57;98516.13;;;23.99;35.93
74637;BME280;63141;54.616;39.754;2022-10-31T06:28:58;98529.44;;;23.99;35.72
74637;BME280;63141;54.616;39.754;2022-10-31T06:32:15;98538.25;;;23.99;35.85
74637;BME280;63141;54.616;39.754;2022-10-31T06:35:18;98534.63;;;24.00;35.79
74637;BME280;63141;54.616;39.754;2022-10-31T06:38:19;98533.78;;;24.00;35.84
74637;BME280;63141;54.616;39.754;2022-10-31T06:41:21;98549.72;;;24.00;36.03
74637;BME280;63141;54.616;39.754;2022-10-31T06:44:23;98547.06;;;24.00;35.69
74637;BME280;63141;54.616;39.754;2022-10-31T06:47:34;98550.47;;;24.02;35.94
74637;BME280;63141;54.616;39.754;2022-10-31T06:50:41;98550.47;;;24.02;35.89
74637;BME280;63141;54.616;39.754;2022-10-31T06:53:44;98558.44;;;24.02;36.12
74637;BME280;63141;54.616;39.754;2022-10-31T06:56:47;98561.09;;;24.02;35.84
74637;BME280;63141;54.616;39.754;2022-10-31T06:59:49;98564.59;;;24.02;36.11
74637;BME280;63141;54.616;39.754;2022-10-31T07:03:12;98562.81;;;24.03;35.94
74637;BME280;63141;54.616;39.754;2022-10-31T07:06:14;98559.28;;;24.02;35.83
74637;BME280;63141;54.616;39.754;2022-10-31T07:09:18;98577.81;;;24.04;35.91
74637;BME280;63141;54.616;39.754;2022-10-31T07:12:21;98563.66;;;24.03;35.73
74637;BME280;63141;54.616;39.754;2022-10-31T07:15:34;98585.78;;;24.04;35.84
74637;BME280;63141;54.616;39.754;2022-10-31T07:18:35;98598.09;;;24.05;35.76
74637;BME280;63141;54.616;39.754;2022-10-31T07:21:37;98594.59;;;24.04;35.99
74637;BME280;63141;54.616;39.754;2022-10-31T07:24:38;98595.44;;;24.05;35.92
74637;BME280;63141;54.616;39.754;2022-10-31T07:27:49;98595.44;;;24.05;35.86
74637;BME280;63141;54.616;39.754;2022-10-31T07:30:52;98606.09;;;24.05;35.89
74637;BME280;63141;54.616;39.754;2022-10-31T07:33:55;98613.13;;;24.06;35.97
74637;BME280;63141;54.616;39.754;2022-10-31T07:36:59;98615.78;;;24.06;35.92
74637;BME280;63141;54.616;39.754;2022-10-31T07:40:02;98613.97;;;24.07;35.76
74637;BME280;63141;54.616;39.754;2022-10-31T07:43:05;98622.91;;;24.06;35.76
74637;BME280;63141;54.616;39.754;2022-10-31T07:46:29;98628.22;;;24.06;35.82
74637;BME280;63141;54.616;39.754;2022-10-31T07:49:49;98634.41;;;24.06;36.06
74637;BME280;63141;54.616;39.754;2022-10-31T07:53:12;98637.06;;;24.06;36.13
74637;BME280;63141;54.616;39.754;2022-10-31T07:56:37;98650.34;;;24.06;36.07
74637;BME280;63141;54.616;39.754;2022-10-31T07:59:38;98656.63;;;24.05;36.01
74637;BME280;63141;54.616;39.754;2022-10-31T08:02:43;98661.94;;;24.05;35.67
74637;BME280;63141;54.616;39.754;2022-10-31T08:06:11;98669.91;;;24.05;36.04
74637;BME280;63141;54.616;39.754;2022-10-31T08:09:23;98669.06;;;24.04;35.77
74637;BME280;63141;54.616;39.754;2022-10-31T08:12:28;98691.19;;;24.05;35.79
74637;BME280;63141;54.616;39.754;2022-10-31T08:15:30;98694.81;;;24.04;35.69
74637;BME280;63141;54.616;39.754;2022-10-31T08:18:32;98691.19;;;24.05;35.94
74637;BME280;63141;54.616;39.754;2022-10-31T08:21:33;98704.50;;;24.05;35.87
74637;BME280;63141;54.616;39.754;2022-10-31T08:24:35;98710.69;;;24.06;35.80
74637;BME280;63141;54.616;39.754;2022-10-31T08:27:37;98717.78;;;24.05;35.99
74637;BME280;63141;54.616;39.754;2022-10-31T08:30:39;98722.25;;;24.04;36.06
74637;BME280;63141;54.616;39.754;2022-10-31T08:34:02;98726.75;;;24.04;36.06
74637;BME280;63141;54.616;39.754;2022-10-31T08:37:16;98732.06;;;24.04;35.89
74637;BME280;63141;54.616;39.754;2022-10-31T08:40:24;98732.06;;;24.04;35.71
74637;BME280;63141;54.616;39.754;2022-10-31T08:43:26;98731.22;;;24.03;35.87
74637;BME280;63141;54.616;39.754;2022-10-31T08:46:28;98739.06;;;24.05;36.01
74637;BME280;63141;54.616;39.754;2022-10-31T08:49:29;98748.00;;;24.04;35.95
74637;BME280;63141;54.616;39.754;2022-10-31T08:52:31;98744.50;;;24.03;35.97
74637;BME280;63141;54.616;39.754;2022-10-31T08:55:37;98763.13;;;24.03;35.80
74637;BME280;63141;54.616;39.754;2022-10-31T08:58:42;98769.28;;;24.04;35.82
74637;BME280;63141;54.616;39.754;2022-10-31T09:01:45;98767.59;;;24.03;35.84
74637;BME280;63141;54.616;39.754;2022-10-31T09:04:51;98762.28;;;24.03;35.91
74637;BME280;63141;54.616;39.754;2022-10-31T09:07:57;98772.94;;;24.03;35.88
74637;BME280;63141;54.616;39.754;2022-10-31T09:10:59;98776.44;;;24.03;36.07
74637;BME280;63141;54.616;39.754;2022-10-31T09:14:21;98778.25;;;24.03;35.70
74637;BME280;63141;54.616;39.754;2022-10-31T09:17:52;98782.59;;;24.04;36.03
74637;BME280;63141;54.616;39.754;2022-10-31T09:21:07;98795.88;;;24.04;36.03
74637;BME280;63141;54.616;39.754;2022-10-31T09:24:08;98798.56;;;24.04;36.02
74637;BME280;63141;54.616;39.754;2022-10-31T09:27:09;98809.19;;;24.04;36.02
74637;BME280;63141;54.616;39.754;2022-10-31T09:30:15;98811.00;;;24.03;35.98
74637;BME280;63141;54.616;39.754;2022-10-31T09:33:18;98811.84;;;24.04;36.04
74637;BME280;63141;54.616;39.754;2022-10-31T09:36:28;98813.53;;;24.05;35.73
74637;BME280;63141;54.616;39.754;2022-10-31T09:39:30;98811.84;;;24.04;35.87
74637;BME280;63141;54.616;39.754;2022-10-31T09:42:55;98820.66;;;24.04;35.79
74637;BME280;63141;54.616;39.754;2022-10-31T09:46:22;98808.22;;;24.05;35.76
74637;BME280;63141;54.616;39.754;2022-10-31T09:53:27;98813.53;;;24.05;35.69
74637;BME280;63141;54.616;39.754;2022-10-31T09:56:32;98819.81;;;24.04;35.82
74637;BME280;63141;54.616;39.754;2022-10-31T09:59:37;98826.84;;;24.05;35.71
74637;BME280;63141;54.616;39.754;2022-10-31T10:03:10;98843.75;;;24.04;35.73
74637;BME280;63141;54.616;39.754;2022-10-31T10:06:21;98833.97;;;24.04;35.94
74637;BME280;63141;54.616;39.754;2022-10-31T10:09:49;98837.47;;;24.05;35.64
74637;BME280;63141;54.616;39.754;2022-10-31T10:18:05;98840.13;;;24.05;35.99
74637;BME280;63141;54.616;39.754;2022-10-31T10:21:50;98842.91;;;24.03;36.01
74637;BME280;63141;54.616;39.754;2022-10-31T10:28:29;98868.72;;;23.89;34.08
74637;BME280;63141;54.616;39.754;2022-10-31T10:31:39;98873.25;;;23.74;32.72
74637;BME280;63141;54.616;39.754;2022-10-31T10:34:46;98880.03;;;23.65;31.76
74637;BME280;63141;54.616;39.754;2022-10-31T10:37:52;98882.53;;;23.54;31.32
74637;BME280;63141;54.616;39.754;2022-10-31T10:40:55;98893.56;;;23.48;30.90
74637;BME280;63141;54.616;39.754;2022-10-31T10:43:59;98904.59;;;23.41;29.86
74637;BME280;63141;54.616;39.754;2022-10-31T10:47:02;98904.44;;;23.30;29.69
74637;BME280;63141;54.616;39.754;2022-10-31T10:50:31;98903.88;;;23.25;28.93
74637;BME280;63141;54.616;39.754;2022-10-31T10:53:41;98913.16;;;23.18;29.03
74637;BME280;63141;54.616;39.754;2022-10-31T11:00:25;98916.41;;;23.23;29.27
74637;BME280;63141;54.616;39.754;2022-10-31T11:03:35;98923.41;;;23.24;28.54
74637;BME280;63141;54.616;39.754;2022-10-31T11:06:37;98926.06;;;23.24;28.64
74637;BME280;63141;54.616;39.754;2022-10-31T11:09:38;98934.88;;;23.25;28.86
74637;BME280;63141;54.616;39.754;2022-10-31T11:12:41;98939.34;;;23.24;28.55
74637;BME280;63141;54.616;39.754;2022-10-31T11:16:14;98941.19;;;23.09;28.04
74637;BME280;63141;54.616;39.754;2022-10-31T11:19:19;98942.09;;;22.94;27.79
74637;BME280;63141;54.616;39.754;2022-10-31T11:22:21;98948.63;;;22.88;27.91
74637;BME280;63141;54.616;39.754;2022-10-31T11:25:24;98948.63;;;22.88;27.94
74637;BME280;63141;54.616;39.754;2022-10-31T11:28:27;98959.09;;;22.91;27.77
74637;BME280;63141;54.616;39.754;2022-10-31T11:31:30;98953.78;;;22.91;27.71
74637;BME280;63141;54.616;39.754;2022-10-31T11:34:37;98955.47;;;22.92;27.79
74637;BME280;63141;54.616;39.754;2022-10-31T11:37:44;98955.47;;;22.92;27.60
74637;BME280;63141;54.616;39.754;2022-10-31T11:40:56;98951.13;;;22.91;27.53
74637;BME280;63141;54.616;39.754;2022-10-31T11:44:01;98960.00;;;22.90;27.19
74637;BME280;63141;54.616;39.754;2022-10-31T11:47:04;98964.41;;;22.91;27.00
74637;BME280;63141;54.616;39.754;2022-10-31T11:50:11;98953.84;;;22.90;26.90
74637;BME280;63141;54.616;39.754;2022-10-31T11:53:24;98963.63;;;22.89;27.13
74637;BME280;63141;54.616;39.754;2022-10-31T11:56:26;98959.25;;;22.88;26.94
74637;BME280;63141;54.616;39.754;2022-10-31T11:59:32;98958.41;;;22.88;26.81
74637;BME280;63141;54.616;39.754;2022-10-31T12:02:35;98956.72;;;22.87;26.71
74637;BME280;63141;54.616;39.754;2022-10-31T12:05:39;98971.88;;;22.85;26.73
74637;BME280;63141;54.616;39.754;2022-10-31T12:08:43;98971.03;;;22.84;26.77
74637;BME280;63141;54.616;39.754;2022-10-31T12:15:33;98973.84;;;22.81;26.63
74637;BME280;63141;54.616;39.754;2022-10-31T12:25:55;98959.66;;;22.82;26.58
74637;BME280;63141;54.616;39.754;2022-10-31T12:58:51;99002.84;;;22.70;26.44
74637;BME280;63141;54.616;39.754;2022-10-31T13:08:47;99024.28;;;22.67;26.34
74637;BME280;63141;54.616;39.754;2022-10-31T13:11:56;99005.91;;;22.64;26.53
74637;BME280;63141;54.616;39.754;2022-10-31T13:15:05;99023.72;;;22.62;26.73
74637;BME280;63141;54.616;39.754;2022-10-31T13:18:21;99027.47;;;22.57;26.58
74637;BME280;63141;54.616;39.754;2022-10-31T13:21:30;99031.81;;;22.58;27.01
74637;BME280;63141;54.616;39.754;2022-10-31T13:24:41;99037.31;;;22.55;27.26
74637;BME280;63141;54.616;39.754;2022-10-31T13:27:49;99039.78;;;22.58;27.71
74637;BME280;63141;54.616;39.754;2022-10-31T13:30:53;99032.16;;;22.68;27.94
74637;BME280;63141;54.616;39.754;2022-10-31T13:34:03;99042.22;;;22.77;28.09
74637;BME280;63141;54.616;39.754;2022-10-31T13:44:01;99037.25;;;23.02;28.14
74637;BME280;63141;54.616;39.754;2022-10-31T13:47:21;99046.66;;;23.07;28.10
74637;BME280;63141;54.616;39.754;2022-10-31T13:50:32;99037.66;;;23.10;28.25
74637;BME280;63141;54.616;39.754;2022-10-31T13:56:53;99031.09;;;23.15;28.48
74637;BME280;63141;54.616;39.754;2022-10-31T13:59:57;99031.97;;;23.16;28.61
74637;BME280;63141;54.616;39.754;2022-10-31T14:03:02;99033.56;;;23.18;28.77
74637;BME280;63141;54.616;39.754;2022-10-31T14:06:05;99022.00;;;23.19;28.74
74637;BME280;63141;54.616;39.754;2022-10-31T14:09:32;99030.63;;;23.23;28.70
74637;BME280;63141;54.616;39.754;2022-10-31T14:12:40;99024.34;;;23.24;28.81
74637;BME280;63141;54.616;39.754;2022-10-31T14:15:53;99036.50;;;23.28;28.83
74637;BME280;63141;54.616;39.754;2022-10-31T14:19:14;99036.44;;;23.30;28.96
74637;BME280;63141;54.616;39.754;2022-10-31T14:22:21;99025.69;;;23.31;28.97
74637;BME280;63141;54.616;39.754;2022-10-31T14:25:31;99045.03;;;23.33;29.08
74637;BME280;63141;54.616;39.754;2022-10-31T14:28:35;99036.13;;;23.34;29.39
74637;BME280;63141;54.616;39.754;2022-10-31T14:34:58;99034.97;;;23.38;29.45
74637;BME280;63141;54.616;39.754;2022-10-31T14:48:07;99031.94;;;23.45;29.67
74637;BME280;63141;54.616;39.754;2022-10-31T14:51:19;99029.19;;;23.46;29.83
74637;BME280;63141;54.616;39.754;2022-10-31T14:54:33;99035.34;;;23.47;30.03
74637;BME280;63141;54.616;39.754;2022-10-31T14:57:36;99039.63;;;23.49;30.30
74637;BME280;63141;54.616;39.754;2022-10-31T15:00:42;99035.16;;;23.50;30.49
74637;BME280;63141;54.616;39.754;2022-10-31T15:03:49;99038.56;;;23.52;30.47
74637;BME280;63141;54.616;39.754;2022-10-31T15:06:57;99039.34;;;23.54;31.06
74637;BME280;63141;54.616;39.754;2022-10-31T15:10:15;99038.41;;;23.55;31.18
74637;BME280;63141;54.616;39.754;2022-10-31T15:13:21;99045.31;;;23.57;31.76
74637;BME280;63141;54.616;39.754;2022-10-31T15:16:25;99044.34;;;23.58;33.45
74637;BME280;63141;54.616;39.754;2022-10-31T15:19:30;99052.25;;;23.60;34.05
74637;BME280;63141;54.616;39.754;2022-10-31T15:22:31;99046.72;;;23.63;35.53
74637;BME280;63141;54.616;39.754;2022-10-31T15:25:34;99050.13;;;23.65;37.46
74637;BME280;63141;54.616;39.754;2022-10-31T15:28:35;99051.84;;;23.66;38.12
74637;BME280;63141;54.616;39.754;2022-10-31T15:31:37;99044.63;;;23.68;39.05
74637;BME280;63141;54.616;39.754;2022-10-31T15:34:40;99060.56;;;23.68;38.80
74637;BME280;63141;54.616;39.754;2022-10-31T15:37:42;99060.41;;;23.71;38.70
74637;BME280;63141;54.616;39.754;2022-10-31T15:40:52;99056.97;;;23.69;38.77
74637;BME280;63141;54.616;39.754;2022-10-31T15:43:59;99062.28;;;23.69;38.38
74637;BME280;63141;54.616;39.754;2022-10-31T15:47:22;99051.66;;;23.69;38.36
74637;BME280;63141;54.616;39.754;2022-10-31T15:50:41;99063.06;;;23.71;39.25
74637;BME280;63141;54.616;39.754;2022-10-31T15:53:49;99065.72;;;23.71;40.93
74637;BME280;63141;54.616;39.754;2022-10-31T15:56:51;99069.13;;;23.73;40.66
74637;BME280;63141;54.616;39.754;2022-10-31T15:59:54;99065.53;;;23.74;41.03
74637;BME280;63141;54.616;39.754;2022-10-31T16:06:21;99070.84;;;23.74;41.35
74637;BME280;63141;54.616;39.754;2022-10-31T16:09:23;99078.84;;;23.74;40.96
74637;BME280;63141;54.616;39.754;2022-10-31T16:12:37;99080.63;;;23.74;41.08
74637;BME280;63141;54.616;39.754;2022-10-31T16:15:52;99100.00;;;23.76;40.65
74637;BME280;63141;54.616;39.754;2022-10-31T16:18:56;99085.94;;;23.74;40.70
74637;BME280;63141;54.616;39.754;2022-10-31T16:22:13;99089.47;;;23.74;40.58
74637;BME280;63141;54.616;39.754;2022-10-31T16:28:26;99091.25;;;23.74;40.03
74637;BME280;63141;54.616;39.754;2022-10-31T16:31:35;99097.44;;;23.74;39.87
74637;BME280;63141;54.616;39.754;2022-10-31T16:34:36;99099.13;;;23.75;39.71
74637;BME280;63141;54.616;39.754;2022-10-31T16:37:42;99092.13;;;23.74;39.41
74637;BME280;63141;54.616;39.754;2022-10-31T16:40:44;99092.13;;;23.74;39.61
74637;BME280;63141;54.616;39.754;2022-10-31T16:43:46;99110.44;;;23.79;39.50
74637;BME280;63141;54.616;39.754;2022-10-31T16:46:47;99103.03;;;23.84;39.66
74637;BME280;63141;54.616;39.754;2022-10-31T16:49:49;99110.16;;;23.83;39.70
74637;BME280;63141;54.616;39.754;2022-10-31T16:52:51;99121.84;;;23.81;39.37
74637;BME280;63141;54.616;39.754;2022-10-31T16:55:57;99105.13;;;23.79;39.41
74637;BME280;63141;54.616;39.754;2022-10-31T16:59:01;99116.59;;;23.79;39.22
74637;BME280;63141;54.616;39.754;2022-10-31T17:02:04;99114.16;;;23.76;39.15
74637;BME280;63141;54.616;39.754;2022-10-31T17:05:12;99129.13;;;23.77;38.86
74637;BME280;63141;54.616;39.754;2022-10-31T17:08:14;99121.38;;;23.74;38.82
74637;BME280;63141;54.616;39.754;2022-10-31T17:11:19;99132.75;;;23.76;38.70
74637;BME280;63141;54.616;39.754;2022-10-31T17:14:21;99136.34;;;23.75;38.34
74637;BME280;63141;54.616;39.754;2022-10-31T17:17:22;99131.03;;;23.75;38.57
74637;BME280;63141;54.616;39.754;2022-10-31T17:20:29;99133.69;;;23.75;38.30
74637;BME280;63141;54.616;39.754;2022-10-31T17:23:31;99130.19;;;23.75;38.33
74637;BME280;63141;54.616;39.754;2022-10-31T17:26:33;99147.06;;;23.74;38.03
74637;BME280;63141;54.616;39.754;2022-10-31T17:29:34;99142.69;;;23.73;38.00
74637;BME280;63141;54.616;39.754;2022-10-31T17:32:36;99143.56;;;23.73;38.05
74637;BME280;63141;54.616;39.754;2022-10-31T17:35:37;99155.06;;;23.74;37.97
74637;BME280;63141;54.616;39.754;2022-10-31T17:38:38;99155.06;;;23.74;37.68
74637;BME280;63141;54.616;39.754;2022-10-31T17:41:40;99163.03;;;23.74;37.48
74637;BME280;63141;54.616;39.754;2022-10-31T17:44:41;99161.25;;;23.74;37.53
74637;BME280;63141;54.616;39.754;2022-10-31T17:47:45;99171.88;;;23.74;37.29
74637;BME280;63141;54.616;39.754;2022-10-31T17:50:47;99161.25;;;23.74;37.34
74637;BME280;63141;54.616;39.754;2022-10-31T17:53:48;99171.88;;;23.74;37.30
74637;BME280;63141;54.616;39.754;2022-10-31T17:56:52;99173.56;;;23.75;37.28
74637;BME280;63141;54.616;39.754;2022-10-31T17:59:53;99171.88;;;23.74;37.56
74637;BME280;63141;54.616;39.754;2022-10-31T18:02:57;99181.56;;;23.75;37.11
74637;BME280;63141;54.616;39.754;2022-10-31T18:05:59;99182.53;;;23.74;37.28
74637;BME280;63141;54.616;39.754;2022-10-31T18:09:03;99189.53;;;23.75;37.36
74637;BME280;63141;54.616;39.754;2022-10-31T18:12:05;99179.84;;;23.74;37.18
74637;BME280;63141;54.616;39.754;2022-10-31T18:15:07;99194.00;;;23.75;37.35
74637;BME280;63141;54.616;39.754;2022-10-31T18:18:08;99189.53;;;23.75;37.13